createdAt,value
2022-12-13T00:01:25.643Z,-7.50
2022-12-13T00:03:57.907Z,-7.60
2022-12-13T00:06:25.486Z,-7.60
2022-12-13T00:08:53.507Z,-7.60
2022-12-13T00:11:20.752Z,-7.70
2022-12-13T00:13:48.155Z,-7.70
2022-12-13T00:16:22.764Z,-7.70
2022-12-13T00:18:51.574Z,-7.60
2022-12-13T00:21:20.307Z,-7.70
2022-12-13T00:23:47.876Z,-7.70
2022-12-13T00:26:18.035Z,-7.70
2022-12-13T00:28:46.226Z,-7.70
2022-12-13T00:31:52.979Z,-7.80
2022-12-13T00:34:00.650Z,-7.80
2022-12-13T00:39:01.714Z,-7.80
2022-12-13T00:41:34.471Z,-7.80
2022-12-13T00:44:02.702Z,-7.80
2022-12-13T00:46:30.856Z,-7.80
2022-12-13T00:49:00.627Z,-7.80
2022-12-13T00:51:29.671Z,-7.80
2022-12-13T00:53:56.457Z,-7.80
2022-12-13T00:56:26.674Z,-7.80
2022-12-13T00:58:55.227Z,-7.80
2022-12-13T01:01:25.274Z,-7.80
2022-12-13T01:03:54.825Z,-7.80
2022-12-13T01:06:35.349Z,-7.80
2022-12-13T01:09:03.381Z,-7.80
2022-12-13T01:11:30.226Z,-7.90
2022-12-13T01:13:57.052Z,-7.90
2022-12-13T01:16:23.913Z,-7.90
2022-12-13T01:18:50.980Z,-7.90
2022-12-13T01:21:20.882Z,-7.90
2022-12-13T01:23:49.460Z,-7.90
2022-12-13T01:26:19.698Z,-7.90
2022-12-13T01:28:47.024Z,-8.00
2022-12-13T01:31:16.959Z,-8.00
2022-12-13T01:33:44.000Z,-8.00
2022-12-13T01:36:17.212Z,-8.00
2022-12-13T01:38:44.603Z,-8.00
2022-12-13T01:41:19.210Z,-8.00
2022-12-13T01:43:53.167Z,-8.10
2022-12-13T01:46:21.967Z,-8.00
2022-12-13T01:48:51.701Z,-8.10
2022-12-13T01:51:21.524Z,-8.10
2022-12-13T01:53:49.945Z,-8.10
2022-12-13T01:56:21.552Z,-8.10
2022-12-13T01:58:50.391Z,-8.20
2022-12-13T02:01:18.351Z,-8.20
2022-12-13T02:03:46.243Z,-8.20
2022-12-13T02:06:19.219Z,-8.20
2022-12-13T02:08:46.925Z,-8.20
2022-12-13T02:11:14.666Z,-8.20
2022-12-13T02:13:41.732Z,-8.20
2022-12-13T02:16:22.869Z,-8.20
2022-12-13T02:19:19.782Z,-8.30
2022-12-13T02:22:02.037Z,-8.30
2022-12-13T02:24:40.778Z,-8.30
2022-12-13T02:27:31.492Z,-8.30
2022-12-13T02:30:22.419Z,-8.40
2022-12-13T02:33:26.690Z,-8.40
2022-12-13T02:36:24.086Z,-8.40
2022-12-13T02:38:59.577Z,-8.40
2022-12-13T02:41:39.182Z,-8.40
2022-12-13T02:44:38.140Z,-8.40
2022-12-13T02:47:12.381Z,-8.40
2022-12-13T02:49:43.975Z,-8.50
2022-12-13T02:52:13.600Z,-8.50
2022-12-13T02:54:49.653Z,-8.60
2022-12-13T02:57:34.649Z,-8.60
2022-12-13T03:00:05.801Z,-8.60
2022-12-13T03:02:44.286Z,-8.60
2022-12-13T03:05:53.264Z,-8.60
2022-12-13T03:08:46.692Z,-8.60
2022-12-13T03:11:17.375Z,-8.60
2022-12-13T03:13:57.681Z,-8.60
2022-12-13T03:16:44.429Z,-8.60
2022-12-13T03:19:13.072Z,-8.70
2022-12-13T03:21:48.221Z,-8.70
2022-12-13T03:24:20.327Z,-8.70
2022-12-13T03:26:49.083Z,-8.70
2022-12-13T03:29:23.443Z,-8.80
2022-12-13T03:31:51.746Z,-8.80
2022-12-13T03:34:22.216Z,-8.80
2022-12-13T03:36:50.334Z,-8.80
2022-12-13T03:39:17.302Z,-8.80
2022-12-13T03:41:44.154Z,-8.80
2022-12-13T03:44:11.001Z,-8.80
2022-12-13T03:46:37.911Z,-8.80
2022-12-13T03:49:04.896Z,-8.80
2022-12-13T03:51:31.690Z,-8.80
2022-12-13T03:53:58.563Z,-8.80
2022-12-13T03:56:26.310Z,-8.90
2022-12-13T03:58:53.287Z,-8.90
2022-12-13T04:01:20.481Z,-8.90
2022-12-13T04:03:47.689Z,-8.90
2022-12-13T04:06:21.968Z,-8.90
2022-12-13T04:08:51.678Z,-8.90
2022-12-13T04:11:48.174Z,-8.90
2022-12-13T04:14:22.627Z,-9.00
2022-12-13T04:16:53.172Z,-9.00
2022-12-13T04:19:23.702Z,-9.00
2022-12-13T04:21:54.757Z,-9.00
2022-12-13T04:24:31.741Z,-9.00
2022-12-13T04:27:00.739Z,-9.00
2022-12-13T04:29:27.977Z,-9.00
2022-12-13T04:32:02.035Z,-9.00
2022-12-13T04:34:34.947Z,-9.00
2022-12-13T04:37:04.023Z,-9.00
2022-12-13T04:39:34.167Z,-9.00
2022-12-13T04:42:01.440Z,-9.00
2022-12-13T04:44:32.627Z,-9.00
2022-12-13T04:47:03.257Z,-9.10
2022-12-13T04:49:30.878Z,-9.10
2022-12-13T04:52:01.255Z,-9.10
2022-12-13T04:54:35.616Z,-9.10
2022-12-13T04:57:05.183Z,-9.10
2022-12-13T04:59:31.989Z,-9.10
2022-12-13T05:01:58.808Z,-9.10
2022-12-13T05:04:32.091Z,-9.10
2022-12-13T05:06:59.733Z,-9.10
2022-12-13T05:09:26.696Z,-9.10
2022-12-13T05:11:53.524Z,-9.10
2022-12-13T05:14:32.439Z,-9.10
2022-12-13T05:17:00.650Z,-9.10
2022-12-13T05:19:31.240Z,-9.10
2022-12-13T05:22:01.380Z,-9.10
2022-12-13T05:24:29.691Z,-9.10
2022-12-13T05:26:57.149Z,-9.10
2022-12-13T05:29:23.965Z,-9.10
2022-12-13T05:31:51.118Z,-9.10
2022-12-13T05:34:18.055Z,-9.00
2022-12-13T05:36:44.852Z,-9.00
2022-12-13T05:39:29.125Z,-9.00
2022-12-13T05:42:01.838Z,-9.00
2022-12-13T05:44:30.711Z,-8.90
2022-12-13T05:46:57.475Z,-8.90
2022-12-13T05:49:24.295Z,-8.90
2022-12-13T05:51:51.225Z,-8.90
2022-12-13T05:54:18.158Z,-8.90
2022-12-13T05:56:44.940Z,-8.90
2022-12-13T05:59:11.756Z,-8.90
2022-12-13T06:01:43.769Z,-8.90
2022-12-13T06:04:12.419Z,-8.90
2022-12-13T06:06:51.061Z,-8.90
2022-12-13T06:09:18.690Z,-8.90
2022-12-13T06:11:45.669Z,-9.00
2022-12-13T06:14:21.468Z,-9.00
2022-12-13T06:16:48.993Z,-8.90
2022-12-13T06:19:15.873Z,-8.90
2022-12-13T06:21:46.221Z,-9.00
2022-12-13T06:24:22.556Z,-9.00
2022-12-13T06:26:50.371Z,-9.00
2022-12-13T06:29:23.284Z,-9.00
2022-12-13T06:32:02.444Z,-9.00
2022-12-13T06:34:35.636Z,-9.00
2022-12-13T06:37:07.012Z,-9.00
2022-12-13T06:39:34.591Z,-9.00
2022-12-13T06:42:06.524Z,-9.00
2022-12-13T06:44:34.271Z,-9.00
2022-12-13T06:47:11.164Z,-8.90
2022-12-13T06:49:40.935Z,-8.90
2022-12-13T06:52:13.185Z,-8.90
2022-12-13T06:54:40.681Z,-8.90
2022-12-13T06:57:07.659Z,-8.90
2022-12-13T06:59:34.506Z,-8.90
2022-12-13T07:02:03.167Z,-8.90
2022-12-13T07:04:31.535Z,-8.90
2022-12-13T07:07:01.363Z,-8.90
2022-12-13T07:09:30.856Z,-8.90
2022-12-13T07:11:58.132Z,-9.00
2022-12-13T07:14:25.282Z,-9.00
2022-12-13T07:16:52.123Z,-8.90
2022-12-13T07:19:24.050Z,-8.90
2022-12-13T07:21:51.860Z,-8.90
2022-12-13T07:24:19.126Z,-8.90
2022-12-13T07:26:46.869Z,-8.90
2022-12-13T07:29:13.715Z,-8.90
2022-12-13T07:31:49.907Z,-8.90
2022-12-13T07:34:16.919Z,-9.00
2022-12-13T07:36:43.676Z,-9.00
2022-12-13T07:39:10.483Z,-9.00
2022-12-13T07:41:37.567Z,-9.00
2022-12-13T07:44:04.895Z,-9.00
2022-12-13T07:46:32.914Z,-9.00
2022-12-13T07:49:05.156Z,-8.90
2022-12-13T07:51:34.774Z,-8.90
2022-12-13T07:54:07.161Z,-9.00
2022-12-13T07:56:35.027Z,-8.90
2022-12-13T07:59:02.434Z,-8.90
2022-12-13T08:01:31.093Z,-8.80
2022-12-13T08:03:57.958Z,-8.80
2022-12-13T08:06:24.749Z,-8.90
2022-12-13T08:08:58.236Z,-8.80
2022-12-13T08:11:25.291Z,-8.80
2022-12-13T08:13:54.245Z,-8.80
2022-12-13T08:16:27.337Z,-8.80
2022-12-13T08:19:02.823Z,-8.80
2022-12-13T08:21:58.521Z,-8.70
2022-12-13T08:24:29.878Z,-8.70
2022-12-13T08:27:03.027Z,-8.60
2022-12-13T08:29:34.464Z,-8.50
2022-12-13T08:32:07.382Z,-8.50
2022-12-13T08:34:34.263Z,-8.40
2022-12-13T08:37:03.232Z,-8.30
2022-12-13T08:39:36.724Z,-8.30
2022-12-13T08:42:15.753Z,-8.20
2022-12-13T08:44:52.628Z,-8.10
2022-12-13T08:47:24.519Z,-8.10
2022-12-13T08:50:02.869Z,-8.00
2022-12-13T08:52:31.872Z,-7.90
2022-12-13T08:54:58.731Z,-7.80
2022-12-13T08:57:25.643Z,-7.70
2022-12-13T08:59:54.450Z,-7.60
2022-12-13T09:02:21.488Z,-7.60
2022-12-13T09:04:49.047Z,-7.50
2022-12-13T09:07:15.801Z,-7.40
2022-12-13T09:09:42.682Z,-7.40
2022-12-13T09:12:10.268Z,-7.40
2022-12-13T09:14:38.400Z,-7.30
2022-12-13T09:17:25.003Z,-7.30
2022-12-13T09:19:58.420Z,-7.30
2022-12-13T09:22:33.728Z,-7.20
2022-12-13T09:25:02.426Z,-7.20
2022-12-13T09:27:39.647Z,-7.10
2022-12-13T09:30:08.916Z,-7.20
2022-12-13T09:32:35.685Z,-7.20
2022-12-13T09:35:02.483Z,-7.10
2022-12-13T09:37:30.256Z,-7.00
2022-12-13T09:39:57.034Z,-7.00
2022-12-13T09:42:30.697Z,-6.90
2022-12-13T09:45:06.466Z,-6.80
2022-12-13T09:47:51.535Z,-6.70
2022-12-13T09:50:37.478Z,-6.70
2022-12-13T09:53:12.193Z,-6.60
2022-12-13T09:55:52.472Z,-6.50
2022-12-13T09:58:20.594Z,-6.40
2022-12-13T10:00:50.625Z,-6.30
2022-12-13T10:03:20.277Z,-6.20
2022-12-13T10:06:22.802Z,-6.10
2022-12-13T10:08:57.415Z,-6.00
2022-12-13T10:11:31.491Z,-6.00
2022-12-13T10:14:05.661Z,-5.90
2022-12-13T10:16:38.431Z,-5.90
2022-12-13T10:19:33.000Z,-5.80
2022-12-13T10:22:02.634Z,-5.80
2022-12-13T10:24:48.316Z,-5.70
2022-12-13T10:27:36.862Z,-5.70
2022-12-13T10:30:07.534Z,-5.60
2022-12-13T10:32:46.164Z,-5.60
2022-12-13T10:35:30.669Z,-5.50
2022-12-13T10:38:00.813Z,-5.50
2022-12-13T10:40:33.299Z,-5.50
2022-12-13T10:43:18.691Z,-5.50
2022-12-13T10:46:00.723Z,-5.50
2022-12-13T10:48:51.913Z,-5.60
2022-12-13T10:51:21.122Z,-5.50
2022-12-13T10:53:55.108Z,-5.50
2022-12-13T10:56:32.691Z,-5.60
2022-12-13T10:59:25.619Z,-5.60
2022-12-13T11:01:52.890Z,-5.50
2022-12-13T11:04:27.880Z,-5.60
2022-12-13T11:06:57.206Z,-5.60
2022-12-13T11:09:38.533Z,-5.60
2022-12-13T11:12:15.333Z,-5.60
2022-12-13T11:15:14.910Z,-5.60
2022-12-13T11:17:51.678Z,-5.50
2022-12-13T11:20:23.624Z,-5.50
2022-12-13T11:22:59.102Z,-5.40
2022-12-13T11:25:31.475Z,-5.40
2022-12-13T11:28:27.826Z,-5.30
2022-12-13T11:31:15.429Z,-5.10
2022-12-13T11:34:09.353Z,-5.20
2022-12-13T11:36:54.710Z,-5.10
2022-12-13T11:39:39.343Z,-5.10
2022-12-13T11:42:23.383Z,-5.00
2022-12-13T11:45:03.301Z,-5.00
2022-12-13T11:47:42.609Z,-5.00
2022-12-13T11:50:33.144Z,-5.00
2022-12-13T11:53:25.400Z,-4.90
2022-12-13T11:55:57.016Z,-5.00
2022-12-13T11:59:02.497Z,-4.90
2022-12-13T12:01:46.213Z,-4.80
2022-12-13T12:04:31.338Z,-4.80
2022-12-13T12:07:31.239Z,-4.70
2022-12-13T12:09:59.962Z,-4.70
2022-12-13T12:12:38.169Z,-4.60
2022-12-13T12:15:26.687Z,-4.60
2022-12-13T12:17:55.994Z,-4.60
2022-12-13T12:20:47.036Z,-4.60
2022-12-13T12:23:48.439Z,-4.50
2022-12-13T12:26:21.788Z,-4.50
2022-12-13T12:29:19.935Z,-4.50
2022-12-13T12:32:21.066Z,-4.50
2022-12-13T12:35:04.727Z,-4.50
2022-12-13T12:37:59.273Z,-4.60
2022-12-13T12:41:18.215Z,-4.60
2022-12-13T12:43:52.207Z,-4.60
2022-12-13T12:47:32.649Z,-4.50
2022-12-13T12:50:18.178Z,-4.40
2022-12-13T12:53:11.882Z,-4.40
2022-12-13T12:56:00.637Z,-4.40
2022-12-13T12:58:33.859Z,-4.20
2022-12-13T13:01:21.761Z,-4.20
2022-12-13T13:03:50.498Z,-4.20
2022-12-13T13:06:29.119Z,-4.10
2022-12-13T13:09:04.422Z,-4.10
2022-12-13T13:11:43.296Z,-4.10
2022-12-13T13:14:39.042Z,-4.20
2022-12-13T13:17:24.001Z,-4.20
2022-12-13T13:20:04.124Z,-4.30
2022-12-13T13:22:42.807Z,-4.30
2022-12-13T13:25:22.917Z,-4.30
2022-12-13T13:27:53.408Z,-4.30
2022-12-13T13:30:21.931Z,-4.30
2022-12-13T13:32:51.734Z,-4.40
2022-12-13T13:35:33.682Z,-4.40
2022-12-13T13:38:05.993Z,-4.40
2022-12-13T13:40:36.949Z,-4.40
2022-12-13T13:43:03.758Z,-4.50
2022-12-13T13:45:31.483Z,-4.50
2022-12-13T13:47:58.270Z,-4.60
2022-12-13T13:53:08.438Z,-4.50
2022-12-13T13:55:58.607Z,-4.60
2022-12-13T13:58:52.709Z,-4.60
2022-12-13T14:01:41.530Z,-4.60
2022-12-13T14:04:27.337Z,-4.60
2022-12-13T14:07:39.635Z,-4.60
2022-12-13T14:10:27.600Z,-4.70
2022-12-13T14:13:29.240Z,-4.70
2022-12-13T14:16:12.277Z,-4.80
2022-12-13T14:19:18.790Z,-4.80
2022-12-13T14:21:51.702Z,-4.80
2022-12-13T14:24:31.456Z,-4.70
2022-12-13T14:27:12.778Z,-4.80
2022-12-13T14:29:48.286Z,-4.70
2022-12-13T14:32:37.003Z,-4.80
2022-12-13T14:35:25.911Z,-4.80
2022-12-13T14:37:58.237Z,-4.80
2022-12-13T14:40:34.808Z,-4.90
2022-12-13T14:43:02.899Z,-4.90
2022-12-13T14:45:33.166Z,-4.90
2022-12-13T14:48:03.397Z,-4.90
2022-12-13T14:50:36.136Z,-4.90
2022-12-13T14:53:03.991Z,-4.90
2022-12-13T14:55:36.877Z,-5.00
2022-12-13T14:58:19.489Z,-4.90
2022-12-13T15:00:46.566Z,-5.00
2022-12-13T15:03:23.418Z,-5.10
2022-12-13T15:05:55.489Z,-5.00
2022-12-13T15:08:23.086Z,-5.10
2022-12-13T15:11:00.289Z,-5.10
2022-12-13T15:13:42.196Z,-5.10
2022-12-13T15:16:16.804Z,-5.10
2022-12-13T15:18:43.664Z,-5.20
2022-12-13T15:21:25.433Z,-5.20
2022-12-13T15:23:53.813Z,-5.20
2022-12-13T15:26:28.530Z,-5.20
2022-12-13T15:28:59.947Z,-5.20
2022-12-13T15:31:28.217Z,-5.20
2022-12-13T15:34:01.283Z,-5.20
2022-12-13T15:36:29.301Z,-5.20
2022-12-13T15:38:56.129Z,-5.20
2022-12-13T15:41:28.788Z,-5.30
2022-12-13T15:44:00.496Z,-5.20
2022-12-13T15:46:30.399Z,-5.30
2022-12-13T15:48:59.929Z,-5.30
2022-12-13T15:51:30.054Z,-5.30
2022-12-13T15:54:04.946Z,-5.30
2022-12-13T15:56:33.219Z,-5.30
2022-12-13T15:59:01.319Z,-5.30
2022-12-13T16:01:36.342Z,-5.30
2022-12-13T16:04:05.092Z,-5.30
2022-12-13T16:06:33.498Z,-5.40
2022-12-13T16:09:03.414Z,-5.30
2022-12-13T16:11:55.857Z,-5.30
2022-12-13T16:14:31.854Z,-5.30
2022-12-13T16:17:24.696Z,-5.30
2022-12-13T16:19:57.311Z,-5.30
2022-12-13T16:22:24.409Z,-5.30
2022-12-13T16:24:52.653Z,-5.30
2022-12-13T16:27:19.681Z,-5.40
2022-12-13T16:29:46.516Z,-5.40
2022-12-13T16:32:13.394Z,-5.40
2022-12-13T16:34:40.268Z,-5.40
2022-12-13T16:37:25.734Z,-5.40
2022-12-13T16:39:54.214Z,-5.40
2022-12-13T16:42:21.344Z,-5.40
2022-12-13T16:45:17.640Z,-5.50
2022-12-13T16:47:48.370Z,-5.50
2022-12-13T16:50:18.295Z,-5.50
2022-12-13T16:52:45.259Z,-5.50
2022-12-13T16:55:12.542Z,-5.50
2022-12-13T16:57:39.842Z,-5.50
2022-12-13T17:00:10.776Z,-5.50
2022-12-13T17:02:38.449Z,-5.50
2022-12-13T17:05:06.115Z,-5.60
2022-12-13T17:07:33.499Z,-5.60
2022-12-13T17:10:00.306Z,-5.60
2022-12-13T17:12:27.094Z,-5.60
2022-12-13T17:14:54.395Z,-5.70
2022-12-13T17:17:21.552Z,-5.70
2022-12-13T17:19:48.392Z,-5.70
2022-12-13T17:22:15.162Z,-5.70
2022-12-13T17:24:41.992Z,-5.70
2022-12-13T17:27:08.929Z,-5.70
2022-12-13T17:29:36.191Z,-5.70
2022-12-13T17:32:04.471Z,-5.70
2022-12-13T17:34:31.497Z,-5.70
2022-12-13T17:36:58.260Z,-5.80
2022-12-13T17:39:25.717Z,-5.80
2022-12-13T17:41:55.568Z,-5.70
2022-12-13T17:44:26.441Z,-5.70
2022-12-13T17:46:55.024Z,-5.80
2022-12-13T17:49:22.618Z,-5.70
2022-12-13T17:51:51.385Z,-5.80
2022-12-13T17:54:18.784Z,-5.80
2022-12-13T17:56:45.883Z,-5.80
2022-12-13T17:59:15.221Z,-5.80
2022-12-13T18:01:45.948Z,-5.80
2022-12-13T18:04:13.206Z,-5.80
2022-12-13T18:06:40.467Z,-5.90
2022-12-13T18:09:08.604Z,-5.90
2022-12-13T18:11:35.792Z,-5.90
2022-12-13T18:14:04.691Z,-5.90
2022-12-13T18:16:38.270Z,-5.90
2022-12-13T18:19:07.956Z,-5.90
2022-12-13T18:21:35.643Z,-5.90
2022-12-13T18:24:02.776Z,-5.90
2022-12-13T18:26:29.597Z,-5.90
2022-12-13T18:28:56.486Z,-5.90
2022-12-13T18:31:25.275Z,-5.90
2022-12-13T18:33:54.058Z,-5.90
2022-12-13T18:36:24.209Z,-5.80
2022-12-13T18:38:51.622Z,-5.80
2022-12-13T18:41:21.597Z,-5.80
2022-12-13T18:43:53.827Z,-5.80
2022-12-13T18:46:21.043Z,-5.80
2022-12-13T18:48:47.911Z,-5.80
2022-12-13T18:51:15.296Z,-5.80
2022-12-13T18:53:42.164Z,-5.70
2022-12-13T18:56:18.357Z,-5.70
2022-12-13T18:58:48.117Z,-5.70
2022-12-13T19:01:16.413Z,-5.70
2022-12-13T19:03:47.852Z,-5.70
2022-12-13T19:06:20.769Z,-5.70
2022-12-13T19:08:53.324Z,-5.70
2022-12-13T19:11:20.513Z,-5.70
2022-12-13T19:13:47.654Z,-5.70
2022-12-13T19:16:17.132Z,-5.70
2022-12-13T19:18:44.216Z,-5.70
2022-12-13T19:21:15.105Z,-5.60
2022-12-13T19:23:42.499Z,-5.70
2022-12-13T19:26:13.038Z,-5.70
2022-12-13T19:28:41.522Z,-5.60
2022-12-13T19:31:17.491Z,-5.70
2022-12-13T19:33:44.334Z,-5.70
2022-12-13T19:36:11.561Z,-5.60
2022-12-13T19:38:40.043Z,-5.60
2022-12-13T19:41:14.115Z,-5.60
2022-12-13T19:43:41.924Z,-5.60
2022-12-13T19:46:09.222Z,-5.60
2022-12-13T19:48:39.830Z,-5.60
2022-12-13T19:51:08.594Z,-5.60
2022-12-13T19:53:36.728Z,-5.60
2022-12-13T19:56:11.656Z,-5.60
2022-12-13T19:58:39.461Z,-5.60
2022-12-13T20:01:07.837Z,-5.50
2022-12-13T20:03:36.479Z,-5.50
2022-12-13T20:06:04.956Z,-5.50
2022-12-13T20:08:33.002Z,-5.50
2022-12-13T20:11:03.190Z,-5.50
2022-12-13T20:13:30.497Z,-5.50
2022-12-13T20:15:57.635Z,-5.50
2022-12-13T20:18:24.969Z,-5.50
2022-12-13T20:21:16.124Z,-5.50
2022-12-13T20:23:48.593Z,-5.50
2022-12-13T20:26:18.327Z,-5.50
2022-12-13T20:28:45.292Z,-5.60
2022-12-13T20:31:14.917Z,-5.60
2022-12-13T20:33:45.085Z,-5.60
2022-12-13T20:36:24.038Z,-5.60
2022-12-13T20:38:56.242Z,-5.60
2022-12-13T20:41:24.968Z,-5.60
2022-12-13T20:43:53.272Z,-5.60
2022-12-13T20:46:21.096Z,-5.60
2022-12-13T20:48:48.788Z,-5.60
2022-12-13T20:51:18.760Z,-5.50
2022-12-13T20:53:48.066Z,-5.50
2022-12-13T20:56:26.464Z,-5.50
2022-12-13T20:58:53.945Z,-5.50
2022-12-13T21:01:23.605Z,-5.50
2022-12-13T21:03:53.135Z,-5.50
2022-12-13T21:06:20.040Z,-5.50
2022-12-13T21:08:52.707Z,-5.50
2022-12-13T21:11:31.076Z,-5.50
2022-12-13T21:14:01.181Z,-5.50
2022-12-13T21:16:42.940Z,-5.50
2022-12-13T21:19:12.975Z,-5.50
2022-12-13T21:21:40.221Z,-5.50
2022-12-13T21:24:07.439Z,-5.50
2022-12-13T21:26:35.950Z,-5.40
2022-12-13T21:29:05.562Z,-5.40
2022-12-13T21:31:32.698Z,-5.40
2022-12-13T21:34:00.994Z,-5.40
2022-12-13T21:36:36.169Z,-5.40
2022-12-13T21:39:10.384Z,-5.40
2022-12-13T21:41:37.258Z,-5.40
2022-12-13T21:44:04.783Z,-5.40
2022-12-13T21:47:02.941Z,-5.40
2022-12-13T21:49:18.863Z,-5.30
2022-12-13T21:51:48.235Z,-5.30
2022-12-13T21:54:15.739Z,-5.30
2022-12-13T21:57:01.099Z,-5.30
2022-12-13T21:59:28.898Z,-5.30
2022-12-13T22:02:18.027Z,-5.30
2022-12-13T22:04:52.473Z,-5.20
2022-12-13T22:07:23.216Z,-5.30
2022-12-13T22:09:51.315Z,-5.20
2022-12-13T22:12:25.593Z,-5.20
2022-12-13T22:14:53.306Z,-5.20
2022-12-13T22:17:26.977Z,-5.20
2022-12-13T22:19:58.106Z,-5.20
2022-12-13T22:22:25.444Z,-5.20
2022-12-13T22:24:53.879Z,-5.20
2022-12-13T22:27:25.571Z,-5.20
2022-12-13T22:29:53.900Z,-5.20
2022-12-13T22:32:20.946Z,-5.10
2022-12-13T22:34:48.111Z,-5.10
2022-12-13T22:37:15.035Z,-5.10
2022-12-13T22:39:41.886Z,-5.10
2022-12-13T22:42:08.721Z,-5.10
2022-12-13T22:44:35.590Z,-5.10
2022-12-13T22:47:02.550Z,-5.10
2022-12-13T22:49:29.356Z,-5.00
2022-12-13T22:51:56.191Z,-5.00
2022-12-13T22:54:23.562Z,-5.00
2022-12-13T22:56:50.708Z,-5.00
2022-12-13T22:59:17.619Z,-5.10
2022-12-13T23:01:47.140Z,-5.00
2022-12-13T23:04:14.877Z,-5.00
2022-12-13T23:06:41.798Z,-5.00
2022-12-13T23:09:11.658Z,-5.00
2022-12-13T23:11:56.781Z,-5.00
2022-12-13T23:14:32.836Z,-5.00
2022-12-13T23:17:00.790Z,-5.00
2022-12-13T23:19:41.572Z,-5.00
2022-12-13T23:22:16.048Z,-5.10
2022-12-13T23:24:42.853Z,-5.10
2022-12-13T23:27:09.863Z,-5.00
2022-12-13T23:29:36.814Z,-5.00
2022-12-13T23:32:03.869Z,-5.00
2022-12-13T23:34:30.887Z,-5.00
2022-12-13T23:36:57.674Z,-5.00
2022-12-13T23:39:24.485Z,-5.00
2022-12-13T23:41:51.270Z,-5.00
2022-12-13T23:44:18.284Z,-5.00
2022-12-13T23:46:48.628Z,-5.00
2022-12-13T23:49:16.436Z,-5.00
2022-12-13T23:51:43.535Z,-4.90
2022-12-13T23:54:14.714Z,-4.90
2022-12-13T23:56:41.686Z,-4.90
2022-12-13T23:59:08.718Z,-4.90
